createdAt,value
2022-09-06T00:01:18.869Z,6.90
2022-09-06T00:03:27.938Z,5.90
2022-09-06T00:05:35.877Z,7.03
2022-09-06T00:07:44.996Z,7.30
2022-09-06T00:09:58.067Z,6.63
2022-09-06T00:12:07.066Z,6.50
2022-09-06T00:14:14.887Z,5.80
2022-09-06T00:16:28.446Z,7.15
2022-09-06T00:18:38.245Z,6.72
2022-09-06T00:20:46.050Z,7.40
2022-09-06T00:22:54.009Z,6.80
2022-09-06T00:25:04.693Z,7.55
2022-09-06T00:27:12.674Z,6.53
2022-09-06T00:29:20.634Z,7.70
2022-09-06T00:31:30.462Z,6.90
2022-09-06T00:33:38.620Z,7.38
2022-09-06T00:35:47.468Z,7.40
2022-09-06T00:38:00.255Z,7.30
2022-09-06T00:40:12.154Z,7.40
2022-09-06T00:42:19.944Z,7.72
2022-09-06T00:44:27.744Z,7.07
2022-09-06T00:46:37.004Z,7.90
2022-09-06T00:48:46.916Z,7.20
2022-09-06T00:50:59.172Z,8.32
2022-09-06T00:53:07.213Z,7.65
2022-09-06T00:55:18.006Z,8.00
2022-09-06T00:57:27.383Z,8.80
2022-09-06T00:59:38.984Z,7.63
2022-09-06T01:01:46.971Z,7.68
2022-09-06T01:03:55.087Z,7.72
2022-09-06T01:06:15.565Z,7.93
2022-09-06T01:08:32.091Z,8.70
2022-09-06T01:10:56.638Z,8.63
2022-09-06T01:13:13.618Z,8.60
2022-09-06T01:15:32.177Z,9.27
2022-09-06T01:17:53.282Z,8.55
2022-09-06T01:20:32.376Z,8.85
2022-09-06T01:23:13.391Z,7.93
2022-09-06T01:26:03.796Z,8.88
2022-09-06T01:28:40.351Z,8.55
2022-09-06T01:30:53.947Z,8.65
2022-09-06T01:33:09.763Z,9.40
2022-09-06T01:35:23.132Z,8.50
2022-09-06T01:37:31.601Z,8.60
2022-09-06T01:39:40.490Z,8.55
2022-09-06T01:41:48.438Z,8.63
2022-09-06T01:44:00.697Z,8.43
2022-09-06T01:46:18.647Z,8.65
2022-09-06T01:48:39.380Z,8.25
2022-09-06T01:51:01.162Z,8.90
2022-09-06T01:53:16.696Z,8.80
2022-09-06T01:55:33.064Z,7.82
2022-09-06T01:58:08.194Z,8.65
2022-09-06T02:00:25.155Z,8.63
2022-09-06T02:02:59.737Z,8.98
2022-09-06T02:05:20.380Z,9.15
2022-09-06T02:07:31.502Z,9.13
2022-09-06T02:09:43.855Z,9.15
2022-09-06T02:11:56.648Z,10.15
2022-09-06T02:14:09.751Z,9.63
2022-09-06T02:16:24.855Z,9.70
2022-09-06T02:18:37.029Z,12.93
2022-09-06T02:20:50.912Z,9.85
2022-09-06T02:23:03.550Z,9.38
2022-09-06T02:25:21.641Z,12.60
2022-09-06T02:27:31.187Z,8.90
2022-09-06T02:29:39.256Z,10.40
2022-09-06T02:31:53.652Z,9.27
2022-09-06T02:34:02.059Z,9.65
2022-09-06T02:36:12.149Z,9.93
2022-09-06T02:38:21.524Z,11.13
2022-09-06T02:40:29.618Z,9.20
2022-09-06T02:42:37.895Z,11.23
2022-09-06T02:44:45.688Z,10.63
2022-09-06T02:46:57.337Z,9.40
2022-09-06T02:49:05.419Z,9.57
2022-09-06T02:51:13.594Z,9.23
2022-09-06T02:53:21.908Z,8.57
2022-09-06T02:55:30.038Z,8.65
2022-09-06T02:57:38.248Z,8.50
2022-09-06T02:59:46.362Z,9.40
2022-09-06T03:01:56.895Z,10.07
2022-09-06T03:04:05.306Z,10.90
2022-09-06T03:06:13.189Z,12.02
2022-09-06T03:08:22.614Z,10.60
2022-09-06T03:10:30.619Z,9.85
2022-09-06T03:12:38.454Z,10.60
2022-09-06T03:14:46.766Z,14.23
2022-09-06T03:16:57.719Z,14.75
2022-09-06T03:19:05.696Z,13.20
2022-09-06T03:21:13.822Z,12.80
2022-09-06T03:23:22.517Z,13.52
2022-09-06T03:25:30.453Z,12.88
2022-09-06T03:27:38.696Z,10.07
2022-09-06T03:29:46.583Z,11.45
2022-09-06T03:31:57.280Z,10.82
2022-09-06T03:34:09.051Z,11.52
2022-09-06T03:36:18.877Z,11.00
2022-09-06T03:38:27.962Z,10.48
2022-09-06T03:40:37.350Z,12.02
2022-09-06T03:42:46.572Z,12.35
2022-09-06T03:44:54.426Z,11.90
2022-09-06T03:47:04.892Z,13.45
2022-09-06T03:49:13.293Z,12.05
2022-09-06T03:51:21.432Z,12.10
2022-09-06T03:53:31.131Z,13.75
2022-09-06T03:55:39.108Z,13.77
2022-09-06T03:57:47.040Z,13.98
2022-09-06T03:59:55.070Z,13.93
2022-09-06T04:02:06.652Z,14.15
2022-09-06T04:04:14.561Z,13.32
2022-09-06T04:06:22.547Z,12.95
2022-09-06T04:08:30.523Z,12.85
2022-09-06T04:10:38.705Z,12.82
2022-09-06T04:12:47.902Z,13.90
2022-09-06T04:14:55.818Z,13.35
2022-09-06T04:17:06.292Z,13.07
2022-09-06T04:19:14.149Z,12.40
2022-09-06T04:21:22.112Z,12.65
2022-09-06T04:23:31.580Z,12.88
2022-09-06T04:25:40.679Z,12.90
2022-09-06T04:27:48.594Z,13.48
2022-09-06T04:29:56.716Z,13.10
2022-09-06T04:32:07.547Z,13.13
2022-09-06T04:34:18.724Z,11.90
2022-09-06T04:36:26.565Z,13.02
2022-09-06T04:38:39.210Z,14.18
2022-09-06T04:40:48.398Z,14.15
2022-09-06T04:42:56.512Z,15.02
2022-09-06T04:45:10.506Z,15.90
2022-09-06T04:47:21.425Z,16.38
2022-09-06T04:49:29.251Z,17.35
2022-09-06T04:51:37.460Z,16.02
2022-09-06T04:53:46.196Z,15.45
2022-09-06T04:55:55.022Z,16.38
2022-09-06T04:58:03.637Z,15.20
2022-09-06T05:00:13.357Z,16.30
2022-09-06T05:02:24.113Z,14.63
2022-09-06T05:04:32.244Z,13.80
2022-09-06T05:06:41.821Z,15.30
2022-09-06T05:08:50.471Z,14.45
2022-09-06T05:10:58.376Z,15.38
2022-09-06T05:13:06.197Z,15.05
2022-09-06T05:15:14.671Z,14.35
2022-09-06T05:17:25.145Z,14.10
2022-09-06T05:19:33.206Z,14.73
2022-09-06T05:21:41.252Z,16.10
2022-09-06T05:23:49.116Z,15.60
2022-09-06T05:25:57.326Z,14.82
2022-09-06T05:28:05.797Z,15.00
2022-09-06T05:30:18.212Z,15.32
2022-09-06T05:32:28.698Z,14.55
2022-09-06T05:34:36.667Z,15.45
2022-09-06T05:36:46.218Z,13.70
2022-09-06T05:38:54.453Z,13.88
2022-09-06T05:41:02.324Z,13.73
2022-09-06T05:43:10.271Z,12.23
2022-09-06T05:45:18.546Z,13.52
2022-09-06T05:47:31.272Z,13.20
2022-09-06T05:49:39.324Z,12.50
2022-09-06T05:51:47.426Z,12.90
2022-09-06T05:53:55.332Z,12.30
2022-09-06T05:56:03.309Z,11.65
2022-09-06T05:58:11.439Z,12.82
2022-09-06T06:00:19.978Z,12.73
2022-09-06T06:02:30.674Z,12.68
2022-09-06T06:04:38.954Z,11.70
2022-09-06T06:06:49.141Z,12.57
2022-09-06T06:08:57.184Z,11.98
2022-09-06T06:11:05.703Z,14.25
2022-09-06T06:13:13.599Z,12.98
2022-09-06T06:15:21.509Z,12.18
2022-09-06T06:17:32.124Z,12.05
2022-09-06T06:19:40.666Z,13.20
2022-09-06T06:21:48.498Z,12.75
2022-09-06T06:23:58.684Z,11.60
2022-09-06T06:26:07.126Z,12.43
2022-09-06T06:28:15.137Z,11.60
2022-09-06T06:30:22.858Z,11.60
2022-09-06T06:32:33.771Z,11.82
2022-09-06T06:34:41.673Z,11.95
2022-09-06T06:36:53.024Z,10.73
2022-09-06T06:39:01.488Z,10.75
2022-09-06T06:41:11.671Z,11.27
2022-09-06T06:43:19.939Z,11.63
2022-09-06T06:45:28.266Z,10.18
2022-09-06T06:47:39.012Z,9.90
2022-09-06T06:49:50.230Z,10.30
2022-09-06T06:51:58.918Z,10.35
2022-09-06T06:54:07.665Z,11.48
2022-09-06T06:56:22.094Z,9.38
2022-09-06T06:58:31.033Z,9.57
2022-09-06T07:00:38.949Z,9.57
2022-09-06T07:02:53.530Z,9.30
2022-09-06T07:05:02.150Z,8.70
2022-09-06T07:12:12.959Z,8.50
2022-09-06T07:14:22.109Z,9.70
2022-09-06T07:16:30.582Z,9.00
2022-09-06T07:18:42.561Z,9.50
2022-09-06T07:25:47.720Z,10.27
2022-09-06T07:28:00.654Z,7.87
2022-09-06T07:30:14.883Z,8.80
2022-09-06T07:32:22.714Z,8.03
2022-09-06T07:34:33.948Z,7.53
2022-09-06T07:36:56.885Z,7.70
2022-09-06T07:39:05.028Z,7.10
2022-09-06T07:41:13.668Z,8.17
2022-09-06T07:43:21.506Z,7.83
2022-09-06T07:45:30.149Z,7.17
2022-09-06T07:55:06.142Z,8.00
2022-09-06T07:57:14.332Z,8.00
2022-09-06T07:59:22.900Z,8.30
2022-09-06T08:01:33.140Z,8.87
2022-09-06T08:03:40.996Z,10.17
2022-09-06T08:06:10.331Z,10.90
2022-09-06T08:10:46.903Z,10.20
2022-09-06T08:12:57.979Z,9.95
2022-09-06T08:15:05.849Z,9.48
2022-09-06T08:17:14.361Z,8.65
2022-09-06T08:19:22.272Z,8.95
2022-09-06T08:21:35.248Z,9.00
2022-09-06T08:23:45.589Z,8.80
2022-09-06T08:26:00.716Z,8.20
2022-09-06T08:28:08.867Z,7.30
2022-09-06T08:30:17.425Z,8.00
2022-09-06T08:32:25.392Z,7.07
2022-09-06T08:34:33.688Z,7.90
2022-09-06T08:36:45.531Z,6.88
2022-09-06T08:38:53.896Z,8.18
2022-09-06T08:41:12.749Z,7.90
2022-09-06T08:43:23.181Z,7.73
2022-09-06T08:45:33.217Z,7.20
2022-09-06T08:47:42.056Z,7.82
2022-09-06T08:49:55.124Z,7.28
2022-09-06T08:52:27.392Z,7.30
2022-09-06T08:54:41.396Z,7.33
2022-09-06T08:57:13.969Z,6.77
2022-09-06T08:59:22.521Z,8.23
2022-09-06T09:01:47.729Z,11.23
2022-09-06T09:04:00.644Z,7.03
2022-09-06T09:06:10.826Z,6.50
2022-09-06T09:08:27.893Z,6.27
2022-09-06T09:10:44.250Z,6.90
2022-09-06T09:12:53.055Z,6.80
2022-09-06T09:15:09.178Z,6.83
2022-09-06T09:17:22.927Z,6.80
2022-09-06T09:19:33.621Z,6.70
2022-09-06T09:21:42.942Z,6.30
2022-09-06T09:23:56.942Z,8.03
2022-09-06T09:26:08.779Z,6.60
2022-09-06T09:28:20.646Z,7.40
2022-09-06T09:32:58.253Z,7.23
2022-09-06T09:35:21.377Z,8.40
2022-09-06T09:39:58.448Z,6.50
2022-09-06T09:42:06.653Z,5.67
2022-09-06T09:44:22.436Z,8.00
2022-09-06T09:46:36.349Z,6.37
2022-09-06T09:48:49.758Z,6.60
2022-09-06T09:50:59.376Z,7.00
2022-09-06T09:53:12.331Z,7.43
2022-09-06T09:55:26.415Z,11.80
2022-09-06T09:57:45.870Z,6.03
2022-09-06T09:59:57.451Z,5.40
2022-09-06T10:02:21.572Z,5.50
2022-09-06T10:04:43.820Z,6.60
2022-09-06T10:09:22.038Z,6.80
2022-09-06T10:11:52.667Z,5.70
2022-09-06T10:14:13.676Z,9.70
2022-09-06T10:16:46.252Z,6.40
2022-09-06T10:18:54.186Z,6.17
2022-09-06T10:21:05.045Z,6.30
2022-09-06T10:25:49.952Z,6.60
2022-09-06T10:28:27.601Z,5.90
2022-09-06T10:30:38.842Z,9.30
2022-09-06T10:32:51.785Z,6.10
2022-09-06T10:35:11.501Z,6.30
2022-09-06T10:37:32.915Z,5.10
2022-09-06T10:39:51.231Z,6.80
2022-09-06T10:42:11.774Z,6.93
2022-09-06T10:44:45.716Z,8.57
2022-09-06T10:47:03.771Z,7.93
2022-09-06T10:49:16.768Z,5.27
2022-09-06T10:51:34.952Z,5.93
2022-09-06T10:53:50.114Z,5.87
2022-09-06T10:56:01.997Z,5.73
2022-09-06T10:58:16.111Z,6.83
2022-09-06T11:00:27.296Z,6.13
2022-09-06T11:02:43.955Z,6.13
2022-09-06T11:07:28.529Z,5.97
2022-09-06T11:09:44.245Z,7.33
2022-09-06T11:11:55.856Z,6.60
2022-09-06T11:14:07.951Z,6.60
2022-09-06T11:16:24.460Z,6.37
2022-09-06T11:18:37.348Z,6.37
2022-09-06T11:20:50.057Z,9.20
2022-09-06T11:23:30.811Z,5.57
2022-09-06T11:26:00.262Z,8.43
2022-09-06T11:28:13.773Z,6.30
2022-09-06T11:30:22.979Z,8.70
2022-09-06T11:32:43.495Z,7.00
2022-09-06T11:34:57.231Z,6.33
2022-09-06T11:37:11.998Z,7.13
2022-09-06T11:41:59.432Z,6.80
2022-09-06T11:44:08.167Z,8.70
2022-09-06T11:47:00.541Z,6.40
2022-09-06T11:49:12.599Z,6.93
2022-09-06T11:51:36.562Z,7.20
2022-09-06T11:54:23.183Z,5.57
2022-09-06T11:56:34.266Z,5.80
2022-09-06T11:58:53.939Z,6.13
2022-09-06T12:01:31.929Z,5.93
2022-09-06T12:04:11.969Z,6.20
2022-09-06T12:06:22.028Z,5.50
2022-09-06T12:08:38.956Z,5.53
2022-09-06T12:10:53.898Z,6.70
2022-09-06T12:13:04.250Z,6.33
2022-09-06T12:15:28.338Z,10.80
2022-09-06T12:17:49.656Z,5.87
2022-09-06T12:20:06.929Z,6.10
2022-09-06T12:22:46.410Z,5.50
2022-09-06T12:24:59.785Z,7.23
2022-09-06T12:27:18.485Z,6.30
2022-09-06T12:29:28.487Z,8.00
2022-09-06T12:31:41.547Z,11.53
2022-09-06T12:33:52.513Z,5.60
2022-09-06T12:36:21.542Z,7.13
2022-09-06T12:38:29.717Z,6.33
2022-09-06T12:40:42.113Z,6.17
2022-09-06T12:42:51.551Z,6.23
2022-09-06T12:45:00.000Z,6.57
2022-09-06T12:47:14.590Z,6.97
2022-09-06T12:49:25.178Z,8.10
2022-09-06T12:51:35.811Z,5.60
2022-09-06T12:53:43.637Z,8.80
2022-09-06T12:55:51.608Z,6.10
2022-09-06T12:58:00.914Z,5.90
2022-09-06T13:00:09.780Z,7.27
2022-09-06T13:02:21.823Z,7.93
2022-09-06T13:04:36.747Z,5.00
2022-09-06T13:06:49.323Z,8.57
2022-09-06T13:09:00.092Z,5.33
2022-09-06T13:11:13.550Z,5.60
2022-09-06T13:13:25.178Z,5.53
2022-09-06T13:15:33.928Z,6.97
2022-09-06T13:17:44.560Z,8.03
2022-09-06T13:19:52.416Z,5.23
2022-09-06T13:22:03.989Z,5.60
2022-09-06T13:24:23.132Z,5.77
2022-09-06T13:26:39.450Z,6.50
2022-09-06T13:28:47.346Z,5.60
2022-09-06T13:31:11.395Z,5.50
2022-09-06T13:33:26.409Z,5.53
2022-09-06T13:35:37.326Z,5.57
2022-09-06T13:37:49.605Z,6.97
2022-09-06T13:39:57.969Z,8.97
2022-09-06T13:42:09.010Z,6.17
2022-09-06T13:44:23.163Z,6.50
2022-09-06T13:46:31.132Z,7.50
2022-09-06T13:48:40.000Z,7.13
2022-09-06T13:50:48.174Z,7.20
2022-09-06T13:52:58.642Z,7.43
2022-09-06T13:55:07.311Z,7.77
2022-09-06T13:57:15.490Z,6.50
2022-09-06T13:59:24.057Z,6.20
2022-09-06T14:01:32.501Z,6.40
2022-09-06T14:03:43.560Z,9.50
2022-09-06T14:05:51.454Z,6.63
2022-09-06T14:08:03.553Z,11.67
2022-09-06T14:10:12.453Z,6.90
2022-09-06T14:12:21.343Z,11.30
2022-09-06T14:14:32.367Z,7.27
2022-09-06T14:16:49.179Z,7.20
2022-09-06T14:18:59.250Z,7.53
2022-09-06T14:21:10.194Z,7.13
2022-09-06T14:23:20.928Z,7.60
2022-09-06T14:25:29.008Z,8.00
2022-09-06T14:27:37.988Z,7.23
2022-09-06T14:29:45.808Z,7.37
2022-09-06T14:31:56.172Z,8.13
2022-09-06T14:34:06.193Z,8.03
2022-09-06T14:36:16.100Z,8.80
2022-09-06T14:38:28.340Z,11.10
2022-09-06T14:40:38.202Z,7.40
2022-09-06T14:42:50.294Z,9.57
2022-09-06T14:44:58.949Z,8.57
2022-09-06T14:47:10.998Z,7.23
2022-09-06T14:49:20.644Z,9.33
2022-09-06T14:51:28.743Z,10.17
2022-09-06T14:53:41.252Z,10.33
2022-09-06T14:55:49.551Z,8.63
2022-09-06T14:57:57.660Z,8.30
2022-09-06T15:00:08.747Z,9.10
2022-09-06T15:02:16.875Z,8.20
2022-09-06T15:04:26.462Z,8.93
2022-09-06T15:06:37.036Z,9.03
2022-09-06T15:08:48.126Z,8.40
2022-09-06T15:10:56.932Z,9.03
2022-09-06T15:13:04.923Z,8.40
2022-09-06T15:15:13.653Z,8.50
2022-09-06T15:17:21.656Z,8.33
2022-09-06T15:19:34.046Z,8.20
2022-09-06T15:21:42.149Z,8.10
2022-09-06T15:23:55.075Z,7.83
2022-09-06T15:26:03.178Z,8.07
2022-09-06T15:28:11.275Z,6.47
2022-09-06T15:30:19.489Z,10.17
2022-09-06T15:32:28.154Z,6.23
2022-09-06T15:34:36.112Z,10.33
2022-09-06T15:36:44.324Z,7.20
2022-09-06T15:38:57.600Z,7.00
2022-09-06T15:41:10.180Z,8.47
2022-09-06T15:43:18.312Z,6.57
2022-09-06T15:45:26.346Z,7.40
2022-09-06T15:47:35.472Z,5.60
2022-09-06T15:49:44.099Z,6.30
2022-09-06T15:51:54.217Z,6.23
2022-09-06T15:54:04.764Z,5.50
2022-09-06T15:56:13.032Z,6.60
2022-09-06T15:58:20.915Z,8.80
2022-09-06T16:00:32.135Z,5.80
2022-09-06T16:02:40.484Z,5.90
2022-09-06T16:04:49.516Z,8.40
2022-09-06T16:06:59.881Z,7.93
2022-09-06T16:09:14.335Z,7.90
2022-09-06T16:11:22.487Z,6.77
2022-09-06T16:13:35.701Z,6.67
2022-09-06T16:15:43.875Z,6.70
2022-09-06T16:17:52.195Z,6.40
2022-09-06T16:20:01.306Z,7.63
2022-09-06T16:22:09.651Z,6.77
2022-09-06T16:24:21.545Z,6.80
2022-09-06T16:26:32.275Z,6.17
2022-09-06T16:28:40.826Z,7.40
2022-09-06T16:30:49.103Z,7.03
2022-09-06T16:32:59.414Z,7.53
2022-09-06T16:35:09.123Z,6.27
2022-09-06T16:37:16.979Z,5.73
2022-09-06T16:39:27.894Z,7.10
2022-09-06T16:41:40.548Z,6.63
2022-09-06T16:43:49.612Z,7.00
2022-09-06T16:46:01.407Z,6.30
2022-09-06T16:48:10.081Z,7.60
2022-09-06T16:50:18.238Z,6.60
2022-09-06T16:52:26.366Z,7.07
2022-09-06T16:54:37.541Z,6.93
2022-09-06T16:56:47.068Z,7.37
2022-09-06T16:58:59.296Z,7.53
2022-09-06T17:01:09.657Z,7.10
2022-09-06T17:03:18.223Z,7.10
2022-09-06T17:05:26.321Z,7.73
2022-09-06T17:07:35.111Z,9.17
2022-09-06T17:09:46.197Z,7.83
2022-09-06T17:11:55.745Z,8.10
2022-09-06T17:14:03.915Z,11.63
2022-09-06T17:16:24.415Z,8.73
2022-09-06T17:18:32.860Z,7.37
2022-09-06T17:20:40.998Z,7.63
2022-09-06T17:22:53.118Z,8.03
2022-09-06T17:25:04.896Z,8.07
2022-09-06T17:27:15.139Z,7.27
2022-09-06T17:29:24.622Z,7.83
2022-09-06T17:31:34.402Z,8.13
2022-09-06T17:33:42.615Z,8.30
2022-09-06T17:35:52.039Z,8.87
2022-09-06T17:38:00.020Z,7.50
2022-09-06T17:40:13.092Z,8.13
2022-09-06T17:42:21.135Z,7.57
2022-09-06T17:44:29.708Z,8.33
2022-09-06T17:46:44.083Z,6.97
2022-09-06T17:49:00.230Z,6.93
2022-09-06T17:51:09.764Z,7.30
2022-09-06T17:53:17.769Z,6.63
2022-09-06T17:55:29.074Z,6.87
2022-09-06T17:57:37.400Z,6.37
2022-09-06T17:59:45.881Z,6.63
2022-09-06T18:01:53.762Z,7.18
2022-09-06T18:04:02.510Z,6.03
2022-09-06T18:06:13.196Z,5.30
2022-09-06T18:08:23.022Z,7.83
2022-09-06T18:10:36.764Z,6.45
2022-09-06T18:12:44.860Z,6.03
2022-09-06T18:14:55.588Z,8.05
2022-09-06T18:17:03.586Z,8.00
2022-09-06T18:19:11.796Z,7.93
2022-09-06T18:21:22.377Z,9.00
2022-09-06T18:23:32.605Z,7.22
2022-09-06T18:25:43.306Z,8.63
2022-09-06T18:27:51.357Z,12.40
2022-09-06T18:29:59.872Z,10.98
2022-09-06T18:32:08.146Z,12.13
2022-09-06T18:34:17.695Z,7.75
2022-09-06T18:36:31.212Z,8.50
2022-09-06T18:38:42.847Z,7.85
2022-09-06T18:40:58.702Z,8.20
2022-09-06T18:43:07.138Z,8.20
2022-09-06T18:45:15.106Z,8.40
2022-09-06T18:47:23.250Z,6.75
2022-09-06T18:49:33.900Z,5.50
2022-09-06T18:51:45.866Z,5.82
2022-09-06T18:53:55.961Z,5.82
2022-09-06T18:56:06.638Z,8.77
2022-09-06T18:58:14.636Z,5.82
2022-09-06T19:00:25.794Z,5.05
2022-09-06T19:02:34.214Z,5.63
2022-09-06T19:04:42.336Z,5.45
2022-09-06T19:06:50.416Z,5.32
2022-09-06T19:09:01.789Z,7.55
2022-09-06T19:11:16.569Z,5.47
2022-09-06T19:13:24.669Z,5.47
2022-09-06T19:15:33.784Z,4.97
2022-09-06T19:17:41.928Z,5.80
2022-09-06T19:19:49.995Z,5.90
2022-09-06T19:21:58.614Z,5.03
2022-09-06T19:24:08.957Z,5.90
2022-09-06T19:26:21.882Z,5.75
2022-09-06T19:28:30.667Z,5.90
2022-09-06T19:30:38.801Z,5.53
2022-09-06T19:32:47.657Z,5.18
2022-09-06T19:34:55.613Z,6.13
2022-09-06T19:37:03.737Z,5.85
2022-09-06T19:39:16.446Z,5.80
2022-09-06T19:41:27.218Z,6.80
2022-09-06T19:43:35.289Z,5.65
2022-09-06T19:45:45.044Z,5.70
2022-09-06T19:47:53.075Z,5.80
2022-09-06T19:50:02.138Z,5.40
2022-09-06T19:52:11.681Z,6.75
2022-09-06T19:54:20.616Z,6.20
2022-09-06T19:56:33.892Z,7.18
2022-09-06T19:58:42.499Z,9.82
2022-09-06T20:00:50.580Z,8.18
2022-09-06T20:02:58.805Z,6.20
2022-09-06T20:05:07.177Z,6.38
2022-09-06T20:07:15.279Z,8.60
2022-09-06T20:09:23.482Z,7.80
2022-09-06T20:11:36.006Z,6.80
2022-09-06T20:13:43.926Z,6.78
2022-09-06T20:15:54.598Z,6.70
2022-09-06T20:18:04.400Z,6.97
2022-09-06T20:20:13.564Z,8.77
2022-09-06T20:22:21.602Z,6.57
2022-09-06T20:24:29.690Z,7.05
2022-09-06T20:26:40.805Z,7.22
2022-09-06T20:28:49.035Z,8.43
2022-09-06T20:30:57.220Z,6.80
2022-09-06T20:33:05.490Z,6.68
2022-09-06T20:35:13.566Z,6.60
2022-09-06T20:37:22.035Z,6.55
2022-09-06T20:39:30.384Z,6.85
2022-09-06T20:41:41.041Z,6.63
2022-09-06T20:43:53.182Z,6.68
2022-09-06T20:46:01.832Z,6.60
2022-09-06T20:48:10.497Z,6.72
2022-09-06T20:50:18.649Z,7.25
2022-09-06T20:52:28.145Z,5.68
2022-09-06T20:54:36.802Z,5.53
2022-09-06T20:56:47.393Z,5.40
2022-09-06T20:58:58.010Z,5.25
2022-09-06T21:01:10.395Z,8.23
2022-09-06T21:04:04.623Z,6.47
2022-09-06T21:06:19.710Z,6.65
2022-09-06T21:08:31.712Z,6.22
2022-09-06T21:10:45.170Z,6.90
2022-09-06T21:12:55.924Z,6.65
2022-09-06T21:15:04.004Z,5.75
2022-09-06T21:17:12.061Z,6.07
2022-09-06T21:19:20.278Z,6.80
2022-09-06T21:21:28.878Z,7.00
2022-09-06T21:23:38.422Z,7.32
2022-09-06T21:25:54.506Z,6.75
2022-09-06T21:28:05.394Z,7.18
2022-09-06T21:30:16.011Z,8.02
2022-09-06T21:32:24.016Z,7.40
2022-09-06T21:34:31.954Z,7.05
2022-09-06T21:36:43.717Z,6.60
2022-09-06T21:38:53.418Z,7.10
2022-09-06T21:41:01.641Z,9.20
2022-09-06T21:43:12.540Z,7.45
2022-09-06T21:45:20.506Z,7.43
2022-09-06T21:47:28.464Z,7.68
2022-09-06T21:49:37.299Z,6.68
2022-09-06T21:51:46.594Z,6.63
2022-09-06T21:53:54.992Z,8.18
2022-09-06T21:56:03.206Z,6.35
2022-09-06T21:58:16.492Z,6.53
2022-09-06T22:00:26.786Z,8.38
2022-09-06T22:02:34.723Z,7.10
2022-09-06T22:04:43.331Z,9.20
2022-09-06T22:06:52.046Z,7.13
2022-09-06T22:09:01.094Z,7.50
2022-09-06T22:11:15.324Z,8.00
2022-09-06T22:13:25.946Z,7.30
2022-09-06T22:15:33.967Z,7.40
2022-09-06T22:17:41.853Z,7.60
2022-09-06T22:19:49.744Z,6.82
2022-09-06T22:21:57.667Z,6.85
2022-09-06T22:24:08.174Z,7.15
2022-09-06T22:26:16.315Z,6.30
2022-09-06T22:28:26.964Z,6.63
2022-09-06T22:30:35.283Z,6.40
2022-09-06T22:32:43.390Z,6.60
2022-09-06T22:34:53.735Z,6.07
2022-09-06T22:37:01.833Z,7.13
2022-09-06T22:39:09.935Z,5.85
2022-09-06T22:41:18.066Z,6.72
2022-09-06T22:43:29.217Z,6.15
2022-09-06T22:45:37.305Z,8.52
2022-09-06T22:47:45.234Z,5.45
2022-09-06T22:49:53.340Z,5.63
2022-09-06T22:52:01.335Z,5.10
2022-09-06T22:54:09.892Z,5.05
2022-09-06T22:56:18.149Z,6.18
2022-09-06T22:58:30.072Z,7.07
2022-09-06T23:00:39.562Z,6.57
2022-09-06T23:02:47.794Z,5.75
2022-09-06T23:04:56.134Z,6.47
2022-09-06T23:07:04.196Z,6.05
2022-09-06T23:09:12.107Z,6.18
2022-09-06T23:11:21.844Z,5.95
2022-09-06T23:13:32.420Z,5.60
2022-09-06T23:15:46.232Z,6.30
2022-09-06T23:17:54.752Z,5.93
2022-09-06T23:20:07.162Z,8.82
2022-09-06T23:22:15.192Z,5.72
2022-09-06T23:24:24.370Z,6.68
2022-09-06T23:26:34.265Z,5.50
2022-09-06T23:28:45.407Z,5.50
2022-09-06T23:30:53.512Z,9.45
2022-09-06T23:33:01.806Z,6.20
2022-09-06T23:35:10.733Z,5.18
2022-09-06T23:37:19.243Z,5.03
2022-09-06T23:39:29.002Z,4.80
2022-09-06T23:41:37.492Z,5.20
2022-09-06T23:43:48.541Z,6.20
2022-09-06T23:45:57.081Z,9.15
2022-09-06T23:48:05.799Z,5.13
2022-09-06T23:50:15.582Z,4.90
2022-09-06T23:52:26.275Z,4.70
2022-09-06T23:54:34.791Z,4.50
2022-09-06T23:56:42.650Z,6.13
2022-09-06T23:58:53.401Z,4.93
